sensor_id;sensor_type;location;lat;lon;timestamp;P1;durP1;ratioP1;P2;durP2;ratioP2
28170;SDS011;15458;53.346;-1.688;2022-12-16T00:01:15;10.35;;;4.15;;
28170;SDS011;15458;53.346;-1.688;2022-12-16T00:03:46;10.35;;;3.92;;
28170;SDS011;15458;53.346;-1.688;2022-12-16T00:06:13;9.38;;;4.20;;
28170;SDS011;15458;53.346;-1.688;2022-12-16T00:08:39;12.13;;;4.20;;
28170;SDS011;15458;53.346;-1.688;2022-12-16T00:11:05;10.35;;;4.43;;
28170;SDS011;15458;53.346;-1.688;2022-12-16T00:13:36;9.07;;;4.05;;
28170;SDS011;15458;53.346;-1.688;2022-12-16T00:16:08;9.75;;;4.50;;
28170;SDS011;15458;53.346;-1.688;2022-12-16T00:18:35;9.52;;;3.97;;
28170;SDS011;15458;53.346;-1.688;2022-12-16T00:21:02;8.02;;;3.58;;
28170;SDS011;15458;53.346;-1.688;2022-12-16T00:23:28;9.90;;;4.03;;
28170;SDS011;15458;53.346;-1.688;2022-12-16T00:25:54;8.15;;;3.47;;
28170;SDS011;15458;53.346;-1.688;2022-12-16T00:28:20;8.02;;;3.85;;
28170;SDS011;15458;53.346;-1.688;2022-12-16T00:30:47;10.13;;;3.45;;
28170;SDS011;15458;53.346;-1.688;2022-12-16T00:33:14;11.85;;;3.90;;
28170;SDS011;15458;53.346;-1.688;2022-12-16T00:35:40;11.55;;;4.80;;
28170;SDS011;15458;53.346;-1.688;2022-12-16T00:38:05;10.38;;;3.60;;
28170;SDS011;15458;53.346;-1.688;2022-12-16T00:40:32;7.60;;;3.75;;
28170;SDS011;15458;53.346;-1.688;2022-12-16T00:42:57;14.52;;;3.83;;
28170;SDS011;15458;53.346;-1.688;2022-12-16T00:45:23;10.68;;;4.13;;
28170;SDS011;15458;53.346;-1.688;2022-12-16T00:47:49;10.15;;;3.75;;
28170;SDS011;15458;53.346;-1.688;2022-12-16T00:50:15;9.70;;;3.92;;
28170;SDS011;15458;53.346;-1.688;2022-12-16T00:52:43;16.75;;;6.22;;
28170;SDS011;15458;53.346;-1.688;2022-12-16T00:55:08;23.60;;;8.18;;
28170;SDS011;15458;53.346;-1.688;2022-12-16T00:57:34;24.15;;;8.13;;
28170;SDS011;15458;53.346;-1.688;2022-12-16T01:00:00;30.17;;;9.55;;
28170;SDS011;15458;53.346;-1.688;2022-12-16T01:02:29;14.45;;;5.45;;
28170;SDS011;15458;53.346;-1.688;2022-12-16T01:04:55;11.10;;;4.82;;
28170;SDS011;15458;53.346;-1.688;2022-12-16T01:07:21;11.20;;;4.18;;
28170;SDS011;15458;53.346;-1.688;2022-12-16T01:09:47;10.95;;;4.45;;
28170;SDS011;15458;53.346;-1.688;2022-12-16T01:12:12;9.20;;;3.35;;
28170;SDS011;15458;53.346;-1.688;2022-12-16T01:14:38;7.68;;;3.63;;
28170;SDS011;15458;53.346;-1.688;2022-12-16T01:17:04;17.13;;;3.63;;
28170;SDS011;15458;53.346;-1.688;2022-12-16T01:19:29;10.27;;;4.38;;
28170;SDS011;15458;53.346;-1.688;2022-12-16T01:21:55;11.90;;;4.38;;
28170;SDS011;15458;53.346;-1.688;2022-12-16T01:24:20;12.27;;;4.63;;
28170;SDS011;15458;53.346;-1.688;2022-12-16T01:26:46;12.07;;;4.22;;
28170;SDS011;15458;53.346;-1.688;2022-12-16T01:29:12;9.65;;;3.55;;
28170;SDS011;15458;53.346;-1.688;2022-12-16T01:31:37;10.80;;;3.83;;
28170;SDS011;15458;53.346;-1.688;2022-12-16T01:34:03;17.73;;;5.40;;
28170;SDS011;15458;53.346;-1.688;2022-12-16T01:36:29;16.60;;;6.30;;
28170;SDS011;15458;53.346;-1.688;2022-12-16T01:38:54;16.40;;;6.78;;
28170;SDS011;15458;53.346;-1.688;2022-12-16T01:41:20;11.73;;;4.32;;
28170;SDS011;15458;53.346;-1.688;2022-12-16T01:43:47;14.02;;;6.20;;
28170;SDS011;15458;53.346;-1.688;2022-12-16T01:51:26;8.23;;;4.30;;
28170;SDS011;15458;53.346;-1.688;2022-12-16T01:54:18;12.55;;;4.28;;
28170;SDS011;15458;53.346;-1.688;2022-12-16T01:56:48;12.60;;;4.18;;
28170;SDS011;15458;53.346;-1.688;2022-12-16T01:59:18;7.00;;;3.63;;
28170;SDS011;15458;53.346;-1.688;2022-12-16T02:01:46;11.48;;;4.13;;
28170;SDS011;15458;53.346;-1.688;2022-12-16T02:04:12;10.10;;;3.92;;
28170;SDS011;15458;53.346;-1.688;2022-12-16T02:06:38;8.23;;;2.58;;
28170;SDS011;15458;53.346;-1.688;2022-12-16T02:09:04;5.60;;;2.88;;
28170;SDS011;15458;53.346;-1.688;2022-12-16T02:11:38;6.32;;;2.95;;
28170;SDS011;15458;53.346;-1.688;2022-12-16T02:25:24;6.32;;;2.40;;
28170;SDS011;15458;53.346;-1.688;2022-12-16T02:33:42;6.80;;;2.67;;
28170;SDS011;15458;53.346;-1.688;2022-12-16T02:36:16;4.60;;;2.22;;
28170;SDS011;15458;53.346;-1.688;2022-12-16T02:41:36;14.80;;;6.63;;
28170;SDS011;15458;53.346;-1.688;2022-12-16T02:44:10;10.82;;;4.32;;
28170;SDS011;15458;53.346;-1.688;2022-12-16T02:46:37;8.18;;;4.10;;
28170;SDS011;15458;53.346;-1.688;2022-12-16T02:49:06;9.95;;;4.32;;
28170;SDS011;15458;53.346;-1.688;2022-12-16T02:51:33;20.83;;;6.40;;
28170;SDS011;15458;53.346;-1.688;2022-12-16T02:54:02;15.48;;;4.57;;
28170;SDS011;15458;53.346;-1.688;2022-12-16T03:04:45;13.23;;;4.20;;
28170;SDS011;15458;53.346;-1.688;2022-12-16T03:07:14;10.98;;;3.55;;
28170;SDS011;15458;53.346;-1.688;2022-12-16T03:09:43;7.45;;;3.33;;
28170;SDS011;15458;53.346;-1.688;2022-12-16T03:12:12;8.80;;;3.50;;
28170;SDS011;15458;53.346;-1.688;2022-12-16T03:17:09;11.10;;;2.85;;
28170;SDS011;15458;53.346;-1.688;2022-12-16T03:19:37;9.15;;;3.20;;
28170;SDS011;15458;53.346;-1.688;2022-12-16T03:22:10;11.65;;;3.05;;
28170;SDS011;15458;53.346;-1.688;2022-12-16T03:24:37;10.45;;;3.30;;
28170;SDS011;15458;53.346;-1.688;2022-12-16T03:29:41;5.90;;;3.05;;
28170;SDS011;15458;53.346;-1.688;2022-12-16T03:32:14;9.18;;;2.97;;
28170;SDS011;15458;53.346;-1.688;2022-12-16T03:37:34;8.68;;;2.95;;
28170;SDS011;15458;53.346;-1.688;2022-12-16T03:40:02;6.75;;;2.78;;
28170;SDS011;15458;53.346;-1.688;2022-12-16T03:42:31;5.07;;;2.17;;
28170;SDS011;15458;53.346;-1.688;2022-12-16T03:44:58;4.38;;;1.80;;
28170;SDS011;15458;53.346;-1.688;2022-12-16T03:47:27;6.78;;;2.17;;
28170;SDS011;15458;53.346;-1.688;2022-12-16T03:49:53;5.80;;;2.22;;
28170;SDS011;15458;53.346;-1.688;2022-12-16T03:52:19;5.70;;;2.03;;
28170;SDS011;15458;53.346;-1.688;2022-12-16T03:54:45;5.95;;;2.28;;
28170;SDS011;15458;53.346;-1.688;2022-12-16T03:57:11;5.78;;;2.28;;
28170;SDS011;15458;53.346;-1.688;2022-12-16T03:59:37;9.02;;;2.60;;
28170;SDS011;15458;53.346;-1.688;2022-12-16T04:02:03;5.13;;;2.33;;
28170;SDS011;15458;53.346;-1.688;2022-12-16T04:04:28;8.00;;;2.10;;
28170;SDS011;15458;53.346;-1.688;2022-12-16T04:06:54;5.75;;;2.13;;
28170;SDS011;15458;53.346;-1.688;2022-12-16T04:09:39;11.50;;;3.67;;
28170;SDS011;15458;53.346;-1.688;2022-12-16T04:12:04;5.25;;;2.47;;
28170;SDS011;15458;53.346;-1.688;2022-12-16T04:14:49;6.22;;;2.28;;
28170;SDS011;15458;53.346;-1.688;2022-12-16T04:17:33;4.80;;;1.83;;
28170;SDS011;15458;53.346;-1.688;2022-12-16T04:20:17;5.88;;;2.28;;
28170;SDS011;15458;53.346;-1.688;2022-12-16T04:23:04;12.27;;;4.97;;
28170;SDS011;15458;53.346;-1.688;2022-12-16T04:25:48;17.20;;;5.72;;
28170;SDS011;15458;53.346;-1.688;2022-12-16T04:28:14;15.10;;;5.50;;
28170;SDS011;15458;53.346;-1.688;2022-12-16T04:30:39;15.05;;;5.63;;
28170;SDS011;15458;53.346;-1.688;2022-12-16T04:33:06;11.43;;;4.20;;
28170;SDS011;15458;53.346;-1.688;2022-12-16T04:35:53;12.10;;;4.60;;
28170;SDS011;15458;53.346;-1.688;2022-12-16T04:38:37;15.93;;;4.70;;
28170;SDS011;15458;53.346;-1.688;2022-12-16T04:41:21;8.35;;;3.65;;
28170;SDS011;15458;53.346;-1.688;2022-12-16T04:44:05;5.88;;;3.03;;
28170;SDS011;15458;53.346;-1.688;2022-12-16T04:46:49;8.50;;;3.33;;
28170;SDS011;15458;53.346;-1.688;2022-12-16T04:49:34;4.78;;;2.40;;
28170;SDS011;15458;53.346;-1.688;2022-12-16T04:52:18;5.03;;;2.17;;
28170;SDS011;15458;53.346;-1.688;2022-12-16T04:55:02;6.32;;;2.22;;
28170;SDS011;15458;53.346;-1.688;2022-12-16T04:57:49;6.03;;;2.28;;
28170;SDS011;15458;53.346;-1.688;2022-12-16T05:00:34;5.43;;;2.30;;
28170;SDS011;15458;53.346;-1.688;2022-12-16T05:03:19;4.18;;;1.80;;
28170;SDS011;15458;53.346;-1.688;2022-12-16T05:06:03;6.80;;;1.85;;
28170;SDS011;15458;53.346;-1.688;2022-12-16T05:08:47;14.43;;;4.70;;
28170;SDS011;15458;53.346;-1.688;2022-12-16T05:11:31;11.18;;;3.72;;
28170;SDS011;15458;53.346;-1.688;2022-12-16T05:14:15;9.70;;;3.47;;
28170;SDS011;15458;53.346;-1.688;2022-12-16T05:16:59;5.50;;;2.58;;
28170;SDS011;15458;53.346;-1.688;2022-12-16T05:19:43;8.40;;;2.63;;
28170;SDS011;15458;53.346;-1.688;2022-12-16T05:22:27;11.77;;;3.30;;
28170;SDS011;15458;53.346;-1.688;2022-12-16T05:25:11;8.25;;;3.15;;
28170;SDS011;15458;53.346;-1.688;2022-12-16T05:27:55;13.90;;;4.18;;
28170;SDS011;15458;53.346;-1.688;2022-12-16T05:30:40;7.97;;;3.70;;
28170;SDS011;15458;53.346;-1.688;2022-12-16T05:33:24;10.50;;;3.10;;
28170;SDS011;15458;53.346;-1.688;2022-12-16T05:36:08;14.68;;;3.47;;
28170;SDS011;15458;53.346;-1.688;2022-12-16T05:38:52;14.82;;;4.63;;
28170;SDS011;15458;53.346;-1.688;2022-12-16T05:41:37;10.82;;;4.00;;
28170;SDS011;15458;53.346;-1.688;2022-12-16T05:44:21;9.68;;;3.38;;
28170;SDS011;15458;53.346;-1.688;2022-12-16T05:47:06;7.75;;;2.90;;
28170;SDS011;15458;53.346;-1.688;2022-12-16T05:49:51;8.82;;;3.30;;
28170;SDS011;15458;53.346;-1.688;2022-12-16T05:52:35;11.68;;;3.90;;
28170;SDS011;15458;53.346;-1.688;2022-12-16T05:55:19;16.15;;;5.50;;
28170;SDS011;15458;53.346;-1.688;2022-12-16T05:58:04;10.68;;;4.47;;
28170;SDS011;15458;53.346;-1.688;2022-12-16T06:00:48;9.38;;;4.07;;
28170;SDS011;15458;53.346;-1.688;2022-12-16T06:03:32;9.45;;;3.78;;
28170;SDS011;15458;53.346;-1.688;2022-12-16T06:06:16;11.35;;;3.80;;
28170;SDS011;15458;53.346;-1.688;2022-12-16T06:09:00;11.27;;;4.20;;
28170;SDS011;15458;53.346;-1.688;2022-12-16T06:11:44;12.60;;;4.35;;
28170;SDS011;15458;53.346;-1.688;2022-12-16T06:14:28;7.72;;;3.15;;
28170;SDS011;15458;53.346;-1.688;2022-12-16T06:17:12;10.93;;;3.28;;
28170;SDS011;15458;53.346;-1.688;2022-12-16T06:19:56;12.68;;;3.85;;
28170;SDS011;15458;53.346;-1.688;2022-12-16T06:22:40;15.50;;;4.72;;
28170;SDS011;15458;53.346;-1.688;2022-12-16T06:25:24;10.68;;;4.57;;
28170;SDS011;15458;53.346;-1.688;2022-12-16T06:28:08;15.55;;;5.65;;
28170;SDS011;15458;53.346;-1.688;2022-12-16T06:30:52;14.82;;;4.90;;
28170;SDS011;15458;53.346;-1.688;2022-12-16T06:33:36;14.60;;;5.72;;
28170;SDS011;15458;53.346;-1.688;2022-12-16T06:36:21;14.18;;;4.82;;
28170;SDS011;15458;53.346;-1.688;2022-12-16T06:39:05;9.07;;;4.45;;
28170;SDS011;15458;53.346;-1.688;2022-12-16T06:41:49;12.45;;;3.90;;
28170;SDS011;15458;53.346;-1.688;2022-12-16T06:44:33;10.23;;;3.80;;
28170;SDS011;15458;53.346;-1.688;2022-12-16T06:47:17;11.18;;;3.53;;
28170;SDS011;15458;53.346;-1.688;2022-12-16T06:50:01;7.82;;;3.50;;
28170;SDS011;15458;53.346;-1.688;2022-12-16T06:52:46;10.93;;;4.78;;
28170;SDS011;15458;53.346;-1.688;2022-12-16T06:55:30;11.75;;;4.25;;
28170;SDS011;15458;53.346;-1.688;2022-12-16T06:58:14;16.77;;;4.47;;
28170;SDS011;15458;53.346;-1.688;2022-12-16T07:00:58;13.05;;;5.38;;
28170;SDS011;15458;53.346;-1.688;2022-12-16T07:03:42;9.57;;;4.20;;
28170;SDS011;15458;53.346;-1.688;2022-12-16T07:06:26;7.88;;;3.35;;
28170;SDS011;15458;53.346;-1.688;2022-12-16T07:09:11;7.65;;;3.67;;
28170;SDS011;15458;53.346;-1.688;2022-12-16T07:11:55;8.95;;;3.40;;
28170;SDS011;15458;53.346;-1.688;2022-12-16T07:14:39;6.10;;;2.97;;
28170;SDS011;15458;53.346;-1.688;2022-12-16T07:17:23;8.45;;;3.50;;
28170;SDS011;15458;53.346;-1.688;2022-12-16T07:20:08;10.52;;;3.97;;
28170;SDS011;15458;53.346;-1.688;2022-12-16T07:22:52;12.95;;;3.22;;
28170;SDS011;15458;53.346;-1.688;2022-12-16T07:25:36;9.38;;;3.13;;
28170;SDS011;15458;53.346;-1.688;2022-12-16T07:28:20;6.32;;;2.53;;
28170;SDS011;15458;53.346;-1.688;2022-12-16T07:31:04;6.80;;;2.53;;
28170;SDS011;15458;53.346;-1.688;2022-12-16T07:33:49;13.73;;;3.78;;
28170;SDS011;15458;53.346;-1.688;2022-12-16T07:36:33;18.88;;;4.70;;
28170;SDS011;15458;53.346;-1.688;2022-12-16T07:39:17;7.38;;;3.40;;
28170;SDS011;15458;53.346;-1.688;2022-12-16T07:42:01;7.30;;;2.80;;
28170;SDS011;15458;53.346;-1.688;2022-12-16T07:44:45;11.73;;;4.30;;
28170;SDS011;15458;53.346;-1.688;2022-12-16T07:47:29;11.88;;;4.43;;
28170;SDS011;15458;53.346;-1.688;2022-12-16T07:50:13;25.75;;;10.88;;
28170;SDS011;15458;53.346;-1.688;2022-12-16T07:52:59;28.92;;;11.38;;
28170;SDS011;15458;53.346;-1.688;2022-12-16T07:55:46;20.17;;;8.73;;
28170;SDS011;15458;53.346;-1.688;2022-12-16T07:58:30;24.85;;;10.90;;
28170;SDS011;15458;53.346;-1.688;2022-12-16T08:01:14;18.50;;;8.02;;
28170;SDS011;15458;53.346;-1.688;2022-12-16T08:03:59;21.08;;;6.75;;
28170;SDS011;15458;53.346;-1.688;2022-12-16T08:06:43;24.70;;;9.73;;
28170;SDS011;15458;53.346;-1.688;2022-12-16T08:09:41;79.55;;;28.83;;
28170;SDS011;15458;53.346;-1.688;2022-12-16T08:12:26;25.85;;;9.73;;
28170;SDS011;15458;53.346;-1.688;2022-12-16T08:15:10;21.90;;;8.25;;
28170;SDS011;15458;53.346;-1.688;2022-12-16T08:17:54;14.73;;;6.20;;
28170;SDS011;15458;53.346;-1.688;2022-12-16T08:20:38;11.45;;;5.38;;
28170;SDS011;15458;53.346;-1.688;2022-12-16T08:23:23;18.90;;;5.75;;
28170;SDS011;15458;53.346;-1.688;2022-12-16T08:26:07;14.07;;;5.57;;
28170;SDS011;15458;53.346;-1.688;2022-12-16T08:28:51;16.02;;;5.50;;
28170;SDS011;15458;53.346;-1.688;2022-12-16T08:31:36;9.75;;;3.83;;
28170;SDS011;15458;53.346;-1.688;2022-12-16T08:34:20;16.05;;;5.78;;
28170;SDS011;15458;53.346;-1.688;2022-12-16T08:37:04;12.27;;;5.82;;
28170;SDS011;15458;53.346;-1.688;2022-12-16T08:39:49;25.55;;;8.20;;
28170;SDS011;15458;53.346;-1.688;2022-12-16T08:42:33;20.95;;;7.35;;
28170;SDS011;15458;53.346;-1.688;2022-12-16T08:45:17;19.30;;;7.57;;
28170;SDS011;15458;53.346;-1.688;2022-12-16T08:48:01;15.93;;;6.82;;
28170;SDS011;15458;53.346;-1.688;2022-12-16T08:50:46;12.88;;;5.50;;
28170;SDS011;15458;53.346;-1.688;2022-12-16T08:53:30;11.43;;;4.43;;
28170;SDS011;15458;53.346;-1.688;2022-12-16T08:56:14;20.10;;;8.13;;
28170;SDS011;15458;53.346;-1.688;2022-12-16T08:58:59;20.95;;;8.10;;
28170;SDS011;15458;53.346;-1.688;2022-12-16T09:01:43;51.05;;;13.48;;
28170;SDS011;15458;53.346;-1.688;2022-12-16T09:04:27;148.95;;;35.40;;
28170;SDS011;15458;53.346;-1.688;2022-12-16T09:07:11;33.70;;;11.07;;
28170;SDS011;15458;53.346;-1.688;2022-12-16T09:09:56;85.28;;;24.23;;
28170;SDS011;15458;53.346;-1.688;2022-12-16T09:12:40;105.65;;;27.17;;
28170;SDS011;15458;53.346;-1.688;2022-12-16T09:15:24;88.60;;;23.63;;
28170;SDS011;15458;53.346;-1.688;2022-12-16T09:18:08;87.47;;;21.13;;
28170;SDS011;15458;53.346;-1.688;2022-12-16T09:20:53;88.03;;;23.35;;
28170;SDS011;15458;53.346;-1.688;2022-12-16T09:23:37;77.85;;;21.70;;
28170;SDS011;15458;53.346;-1.688;2022-12-16T09:26:21;74.18;;;22.15;;
28170;SDS011;15458;53.346;-1.688;2022-12-16T09:29:05;74.22;;;24.90;;
28170;SDS011;15458;53.346;-1.688;2022-12-16T09:31:49;47.60;;;16.25;;
28170;SDS011;15458;53.346;-1.688;2022-12-16T09:34:34;61.20;;;17.35;;
28170;SDS011;15458;53.346;-1.688;2022-12-16T09:37:18;53.58;;;19.27;;
28170;SDS011;15458;53.346;-1.688;2022-12-16T09:40:02;64.50;;;20.65;;
28170;SDS011;15458;53.346;-1.688;2022-12-16T09:48:30;63.15;;;18.90;;
28170;SDS011;15458;53.346;-1.688;2022-12-16T09:51:20;62.67;;;19.77;;
28170;SDS011;15458;53.346;-1.688;2022-12-16T09:54:07;52.65;;;18.52;;
28170;SDS011;15458;53.346;-1.688;2022-12-16T09:56:57;53.15;;;18.08;;
28170;SDS011;15458;53.346;-1.688;2022-12-16T09:59:44;54.38;;;17.60;;
28170;SDS011;15458;53.346;-1.688;2022-12-16T10:02:37;45.20;;;14.57;;
28170;SDS011;15458;53.346;-1.688;2022-12-16T10:05:29;44.28;;;16.63;;
28170;SDS011;15458;53.346;-1.688;2022-12-16T10:12:06;49.60;;;17.70;;
28170;SDS011;15458;53.346;-1.688;2022-12-16T10:14:59;47.80;;;16.58;;
28170;SDS011;15458;53.346;-1.688;2022-12-16T10:17:53;40.95;;;15.05;;
28170;SDS011;15458;53.346;-1.688;2022-12-16T10:20:44;42.55;;;15.55;;
28170;SDS011;15458;53.346;-1.688;2022-12-16T10:23:41;40.28;;;13.18;;
28170;SDS011;15458;53.346;-1.688;2022-12-16T10:26:52;38.80;;;12.48;;
28170;SDS011;15458;53.346;-1.688;2022-12-16T10:29:46;42.63;;;16.42;;
28170;SDS011;15458;53.346;-1.688;2022-12-16T10:32:37;45.75;;;16.75;;
28170;SDS011;15458;53.346;-1.688;2022-12-16T10:35:41;41.00;;;15.80;;
28170;SDS011;15458;53.346;-1.688;2022-12-16T10:41:17;48.53;;;16.83;;
28170;SDS011;15458;53.346;-1.688;2022-12-16T10:44:03;89.60;;;23.55;;
28170;SDS011;15458;53.346;-1.688;2022-12-16T10:46:52;67.97;;;19.83;;
28170;SDS011;15458;53.346;-1.688;2022-12-16T10:49:36;52.50;;;17.75;;
28170;SDS011;15458;53.346;-1.688;2022-12-16T10:52:20;35.03;;;13.23;;
28170;SDS011;15458;53.346;-1.688;2022-12-16T10:58:14;38.05;;;15.13;;
28170;SDS011;15458;53.346;-1.688;2022-12-16T11:01:26;42.45;;;14.68;;
28170;SDS011;15458;53.346;-1.688;2022-12-16T11:10:38;29.45;;;12.52;;
28170;SDS011;15458;53.346;-1.688;2022-12-16T11:13:28;40.55;;;12.85;;
28170;SDS011;15458;53.346;-1.688;2022-12-16T11:16:19;33.22;;;11.50;;
28170;SDS011;15458;53.346;-1.688;2022-12-16T11:19:03;21.77;;;9.32;;
28170;SDS011;15458;53.346;-1.688;2022-12-16T11:22:05;46.58;;;13.30;;
28170;SDS011;15458;53.346;-1.688;2022-12-16T11:25:12;30.83;;;11.43;;
28170;SDS011;15458;53.346;-1.688;2022-12-16T11:28:04;67.03;;;16.70;;
28170;SDS011;15458;53.346;-1.688;2022-12-16T11:30:55;38.00;;;12.68;;
28170;SDS011;15458;53.346;-1.688;2022-12-16T11:33:41;33.13;;;11.98;;
28170;SDS011;15458;53.346;-1.688;2022-12-16T11:36:27;40.20;;;13.30;;
28170;SDS011;15458;53.346;-1.688;2022-12-16T11:39:16;44.60;;;13.23;;
28170;SDS011;15458;53.346;-1.688;2022-12-16T11:42:04;35.38;;;14.23;;
28170;SDS011;15458;53.346;-1.688;2022-12-16T11:44:54;29.60;;;12.57;;
28170;SDS011;15458;53.346;-1.688;2022-12-16T11:47:42;27.83;;;11.85;;
28170;SDS011;15458;53.346;-1.688;2022-12-16T11:50:34;30.02;;;12.40;;
28170;SDS011;15458;53.346;-1.688;2022-12-16T11:56:05;32.55;;;13.05;;
28170;SDS011;15458;53.346;-1.688;2022-12-16T11:58:58;51.13;;;17.08;;
28170;SDS011;15458;53.346;-1.688;2022-12-16T12:01:48;62.67;;;19.67;;
28170;SDS011;15458;53.346;-1.688;2022-12-16T12:04:38;42.85;;;15.13;;
28170;SDS011;15458;53.346;-1.688;2022-12-16T12:10:29;32.53;;;12.05;;
28170;SDS011;15458;53.346;-1.688;2022-12-16T12:19:37;22.27;;;9.73;;
28170;SDS011;15458;53.346;-1.688;2022-12-16T12:22:35;23.23;;;10.57;;
28170;SDS011;15458;53.346;-1.688;2022-12-16T12:25:22;24.35;;;10.10;;
28170;SDS011;15458;53.346;-1.688;2022-12-16T12:28:21;29.63;;;10.10;;
28170;SDS011;15458;53.346;-1.688;2022-12-16T12:34:41;22.38;;;10.77;;
28170;SDS011;15458;53.346;-1.688;2022-12-16T12:40:23;24.65;;;11.35;;
28170;SDS011;15458;53.346;-1.688;2022-12-16T12:46:39;26.23;;;12.10;;
28170;SDS011;15458;53.346;-1.688;2022-12-16T12:49:47;24.45;;;11.95;;
28170;SDS011;15458;53.346;-1.688;2022-12-16T12:56:04;33.40;;;14.93;;
28170;SDS011;15458;53.346;-1.688;2022-12-16T12:59:02;20.85;;;10.60;;
28170;SDS011;15458;53.346;-1.688;2022-12-16T13:01:53;28.13;;;11.30;;
28170;SDS011;15458;53.346;-1.688;2022-12-16T13:04:39;23.17;;;10.68;;
28170;SDS011;15458;53.346;-1.688;2022-12-16T13:07:24;25.85;;;10.35;;
28170;SDS011;15458;53.346;-1.688;2022-12-16T13:10:12;22.90;;;8.80;;
28170;SDS011;15458;53.346;-1.688;2022-12-16T13:15:57;21.70;;;8.77;;
28170;SDS011;15458;53.346;-1.688;2022-12-16T13:18:42;19.98;;;8.55;;
28170;SDS011;15458;53.346;-1.688;2022-12-16T13:27:21;14.48;;;7.45;;
28170;SDS011;15458;53.346;-1.688;2022-12-16T13:32:56;19.20;;;8.20;;
28170;SDS011;15458;53.346;-1.688;2022-12-16T13:35:53;22.05;;;8.75;;
28170;SDS011;15458;53.346;-1.688;2022-12-16T13:38:45;18.83;;;9.13;;
28170;SDS011;15458;53.346;-1.688;2022-12-16T13:50:41;17.65;;;8.07;;
28170;SDS011;15458;53.346;-1.688;2022-12-16T13:53:28;22.33;;;8.63;;
28170;SDS011;15458;53.346;-1.688;2022-12-16T13:56:17;18.23;;;9.07;;
28170;SDS011;15458;53.346;-1.688;2022-12-16T13:59:13;24.42;;;11.10;;
28170;SDS011;15458;53.346;-1.688;2022-12-16T14:02:01;17.15;;;7.10;;
28170;SDS011;15458;53.346;-1.688;2022-12-16T14:05:18;17.95;;;8.20;;
28170;SDS011;15458;53.346;-1.688;2022-12-16T14:08:17;21.73;;;9.93;;
28170;SDS011;15458;53.346;-1.688;2022-12-16T14:11:06;19.77;;;9.23;;
28170;SDS011;15458;53.346;-1.688;2022-12-16T14:14:13;19.23;;;9.00;;
28170;SDS011;15458;53.346;-1.688;2022-12-16T14:17:00;20.13;;;10.05;;
28170;SDS011;15458;53.346;-1.688;2022-12-16T14:23:00;23.65;;;10.00;;
28170;SDS011;15458;53.346;-1.688;2022-12-16T14:26:08;21.33;;;9.30;;
28170;SDS011;15458;53.346;-1.688;2022-12-16T14:28:55;23.58;;;10.13;;
28170;SDS011;15458;53.346;-1.688;2022-12-16T14:31:40;21.77;;;10.45;;
28170;SDS011;15458;53.346;-1.688;2022-12-16T14:34:26;22.38;;;10.50;;
28170;SDS011;15458;53.346;-1.688;2022-12-16T14:37:16;23.40;;;11.00;;
28170;SDS011;15458;53.346;-1.688;2022-12-16T14:40:19;23.60;;;10.43;;
28170;SDS011;15458;53.346;-1.688;2022-12-16T14:43:15;26.75;;;12.32;;
28170;SDS011;15458;53.346;-1.688;2022-12-16T14:52:13;52.00;;;22.23;;
28170;SDS011;15458;53.346;-1.688;2022-12-16T14:55:17;24.92;;;11.43;;
28170;SDS011;15458;53.346;-1.688;2022-12-16T14:58:04;21.70;;;10.07;;
28170;SDS011;15458;53.346;-1.688;2022-12-16T15:01:01;31.88;;;14.48;;
28170;SDS011;15458;53.346;-1.688;2022-12-16T15:03:57;22.08;;;11.60;;
28170;SDS011;15458;53.346;-1.688;2022-12-16T15:06:47;27.88;;;12.38;;
28170;SDS011;15458;53.346;-1.688;2022-12-16T15:09:38;23.95;;;11.80;;
28170;SDS011;15458;53.346;-1.688;2022-12-16T15:12:30;23.13;;;11.70;;
28170;SDS011;15458;53.346;-1.688;2022-12-16T15:15:23;24.15;;;11.45;;
28170;SDS011;15458;53.346;-1.688;2022-12-16T15:18:17;24.90;;;11.73;;
28170;SDS011;15458;53.346;-1.688;2022-12-16T15:21:05;25.85;;;13.13;;
28170;SDS011;15458;53.346;-1.688;2022-12-16T15:23:51;25.65;;;11.93;;
28170;SDS011;15458;53.346;-1.688;2022-12-16T15:26:35;20.35;;;11.38;;
28170;SDS011;15458;53.346;-1.688;2022-12-16T15:32:32;20.40;;;9.93;;
28170;SDS011;15458;53.346;-1.688;2022-12-16T15:35:35;14.27;;;7.53;;
28170;SDS011;15458;53.346;-1.688;2022-12-16T15:38:29;14.25;;;7.07;;
28170;SDS011;15458;53.346;-1.688;2022-12-16T15:41:20;18.83;;;8.00;;
28170;SDS011;15458;53.346;-1.688;2022-12-16T15:44:13;25.73;;;9.70;;
28170;SDS011;15458;53.346;-1.688;2022-12-16T15:47:25;53.17;;;20.63;;
28170;SDS011;15458;53.346;-1.688;2022-12-16T15:50:20;33.97;;;14.60;;
28170;SDS011;15458;53.346;-1.688;2022-12-16T15:53:27;31.85;;;12.65;;
28170;SDS011;15458;53.346;-1.688;2022-12-16T15:56:16;33.35;;;13.27;;
28170;SDS011;15458;53.346;-1.688;2022-12-16T15:59:26;41.03;;;16.17;;
28170;SDS011;15458;53.346;-1.688;2022-12-16T16:02:19;48.08;;;16.63;;
28170;SDS011;15458;53.346;-1.688;2022-12-16T16:05:13;32.83;;;13.20;;
28170;SDS011;15458;53.346;-1.688;2022-12-16T16:07:58;34.38;;;14.55;;
28170;SDS011;15458;53.346;-1.688;2022-12-16T16:10:42;25.65;;;11.40;;
28170;SDS011;15458;53.346;-1.688;2022-12-16T16:13:28;27.50;;;10.57;;
28170;SDS011;15458;53.346;-1.688;2022-12-16T16:16:12;19.00;;;9.30;;
28170;SDS011;15458;53.346;-1.688;2022-12-16T16:19:00;16.33;;;7.95;;
28170;SDS011;15458;53.346;-1.688;2022-12-16T16:21:45;23.33;;;9.85;;
28170;SDS011;15458;53.346;-1.688;2022-12-16T16:24:29;32.30;;;13.10;;
28170;SDS011;15458;53.346;-1.688;2022-12-16T16:27:13;24.88;;;12.20;;
28170;SDS011;15458;53.346;-1.688;2022-12-16T16:29:58;20.90;;;9.60;;
28170;SDS011;15458;53.346;-1.688;2022-12-16T16:32:43;22.98;;;10.93;;
28170;SDS011;15458;53.346;-1.688;2022-12-16T16:35:31;24.30;;;10.80;;
28170;SDS011;15458;53.346;-1.688;2022-12-16T16:38:17;29.80;;;13.82;;
28170;SDS011;15458;53.346;-1.688;2022-12-16T16:41:02;26.02;;;12.13;;
28170;SDS011;15458;53.346;-1.688;2022-12-16T16:43:58;23.98;;;11.13;;
28170;SDS011;15458;53.346;-1.688;2022-12-16T16:46:42;21.98;;;10.27;;
28170;SDS011;15458;53.346;-1.688;2022-12-16T16:49:32;22.30;;;9.55;;
28170;SDS011;15458;53.346;-1.688;2022-12-16T16:52:20;18.15;;;8.55;;
28170;SDS011;15458;53.346;-1.688;2022-12-16T16:55:06;18.63;;;8.40;;
28170;SDS011;15458;53.346;-1.688;2022-12-16T16:57:56;14.05;;;8.23;;
28170;SDS011;15458;53.346;-1.688;2022-12-16T17:00:40;16.75;;;8.45;;
28170;SDS011;15458;53.346;-1.688;2022-12-16T17:03:32;19.00;;;9.00;;
28170;SDS011;15458;53.346;-1.688;2022-12-16T17:06:17;14.15;;;8.73;;
28170;SDS011;15458;53.346;-1.688;2022-12-16T17:09:01;15.50;;;8.25;;
28170;SDS011;15458;53.346;-1.688;2022-12-16T17:11:45;17.00;;;8.75;;
28170;SDS011;15458;53.346;-1.688;2022-12-16T17:14:29;21.60;;;10.48;;
28170;SDS011;15458;53.346;-1.688;2022-12-16T17:17:14;33.67;;;18.73;;
28170;SDS011;15458;53.346;-1.688;2022-12-16T17:19:58;24.85;;;14.20;;
28170;SDS011;15458;53.346;-1.688;2022-12-16T17:22:42;18.17;;;9.88;;
28170;SDS011;15458;53.346;-1.688;2022-12-16T17:25:27;16.52;;;6.72;;
28170;SDS011;15458;53.346;-1.688;2022-12-16T17:28:11;13.93;;;6.57;;
28170;SDS011;15458;53.346;-1.688;2022-12-16T17:30:55;18.90;;;7.15;;
28170;SDS011;15458;53.346;-1.688;2022-12-16T17:33:39;15.70;;;6.43;;
28170;SDS011;15458;53.346;-1.688;2022-12-16T17:36:23;16.00;;;7.00;;
28170;SDS011;15458;53.346;-1.688;2022-12-16T17:39:07;18.38;;;6.97;;
28170;SDS011;15458;53.346;-1.688;2022-12-16T17:41:53;20.80;;;6.80;;
28170;SDS011;15458;53.346;-1.688;2022-12-16T17:44:57;18.83;;;6.60;;
28170;SDS011;15458;53.346;-1.688;2022-12-16T17:47:41;15.30;;;5.88;;
28170;SDS011;15458;53.346;-1.688;2022-12-16T17:50:25;17.27;;;7.55;;
28170;SDS011;15458;53.346;-1.688;2022-12-16T17:53:09;17.33;;;6.72;;